Time;durP1;ratioP1;P1;durP2;ratioP2;P2;SDS_P1;SDS_P2;PMS_P1;PMS_P2;Temp;Humidity;BMP_temperature;BMP_pressure;BME280_temperature;BME280_humidity;BME280_pressure;Samples;Min_cycle;Max_cycle;Signal;HPM_P1;HPM_P2
2023/08/25 00:01:49;;;;;;;27.40;15.15;;;;;;;27.06;49.61;101040.00;5094317;28;20482;-48
2023/08/25 00:04:16;;;;;;;22.40;15.45;;;;;;;26.95;49.54;101048.75;5094318;28;20049;-45
2023/08/25 00:06:42;;;;;;;28.85;15.05;;;;;;;26.94;49.93;101045.19;5094178;28;20028;-43
2023/08/25 00:09:09;;;;;;;23.90;15.43;;;;;;;26.81;49.46;101062.53;5094066;28;20031;-48
2023/08/25 00:11:37;;;;;;;25.20;15.50;;;;;;;26.72;49.82;101053.41;5078492;28;20371;-46
2023/08/25 00:14:04;;;;;;;27.88;16.33;;;;;;;26.43;50.72;101051.84;5094390;28;20016;-50
2023/08/25 00:16:30;;;;;;;26.15;16.63;;;;;;;26.10;51.64;101059.38;5093597;28;20035;-49
2023/08/25 00:18:56;;;;;;;24.05;15.77;;;;;;;25.99;51.81;101046.97;5093929;28;20032;-48
2023/08/25 00:21:23;;;;;;;24.67;15.52;;;;;;;25.96;52.56;101042.09;5095696;28;20042;-50
2023/08/25 00:23:50;;;;;;;35.10;15.90;;;;;;;25.95;51.99;101037.72;5094749;28;20047;-50
2023/08/25 00:26:16;;;;;;;24.98;15.95;;;;;;;25.91;52.02;101037.50;5099199;28;20081;-49
2023/08/25 00:28:42;;;;;;;26.85;16.15;;;;;;;25.63;53.72;101042.13;5090958;28;20025;-46
2023/08/25 00:31:08;;;;;;;31.00;15.75;;;;;;;25.59;53.85;101043.03;5090481;28;20119;-47
2023/08/25 00:33:35;;;;;;;25.02;16.25;;;;;;;25.60;53.78;101042.75;5091582;28;20028;-50
2023/08/25 00:36:02;;;;;;;26.60;16.38;;;;;;;25.53;54.21;101045.03;5093748;28;20363;-49
2023/08/25 00:38:28;;;;;;;23.83;15.65;;;;;;;25.55;54.16;101051.06;5092042;28;20028;-49
2023/08/25 00:40:55;;;;;;;29.40;18.02;;;;;;;25.39;54.57;101045.03;5091705;28;20028;-46
2023/08/25 00:43:21;;;;;;;26.67;17.10;;;;;;;25.30;54.16;101046.81;5091791;28;20036;-47
2023/08/25 00:45:47;;;;;;;27.88;16.83;;;;;;;24.88;55.65;101045.81;5092787;28;20107;-58
2023/08/25 00:48:14;;;;;;;28.35;16.60;;;;;;;24.81;55.97;101052.75;5091971;28;20024;-43
2023/08/25 00:50:40;;;;;;;24.88;16.27;;;;;;;24.65;56.35;101042.06;5092011;28;20849;-44
2023/08/25 00:53:07;;;;;;;27.48;15.95;;;;;;;24.50;57.25;101031.31;5091954;28;20016;-47
2023/08/25 00:55:35;;;;;;;30.58;17.70;;;;;;;24.40;57.05;101031.44;5092949;28;20085;-45
2023/08/25 00:58:05;;;;;;;27.88;16.98;;;;;;;24.34;57.78;101036.13;5091696;28;20436;-44
2023/08/25 01:00:32;;;;;;;25.38;16.30;;;;;;;24.30;57.94;101043.28;5092817;28;20024;-46
2023/08/25 01:02:58;;;;;;;29.67;16.27;;;;;;;24.34;57.47;101043.53;5081709;28;20028;-49
2023/08/25 01:05:25;;;;;;;26.98;17.27;;;;;;;24.05;58.31;101038.16;5089657;28;20032;-53
2023/08/25 01:07:51;;;;;;;30.48;17.23;;;;;;;23.75;59.58;101040.09;5088584;28;20420;-50
2023/08/25 01:10:25;;;;;;;29.92;16.70;;;;;;;23.84;59.19;101045.75;5071274;28;20025;-52
2023/08/25 01:12:59;;;;;;;23.50;16.23;;;;;;;23.77;59.11;101037.09;5072427;28;20086;-48
2023/08/25 01:15:32;;;;;;;26.47;16.43;;;;;;;23.75;59.44;101045.56;5086596;28;20043;-47
2023/08/25 01:18:15;;;;;;;29.90;17.95;;;;;;;23.63;59.99;101036.94;5092041;28;20077;-56
2023/08/25 01:20:45;;;;;;;30.67;16.17;;;;;;;23.30;60.45;101033.94;5083691;28;20107;-50
2023/08/25 01:23:38;;;;;;;24.33;16.70;;;;;;;23.20;61.22;101034.03;5091223;28;20379;-47
2023/08/25 01:26:06;;;;;;;30.20;17.25;;;;;;;23.12;61.74;101035.47;5092524;28;20080;-51
2023/08/25 01:28:32;;;;;;;29.08;16.27;;;;;;;23.16;61.41;101036.53;5091284;28;20057;-49
2023/08/25 01:30:59;;;;;;;30.77;16.60;;;;;;;23.27;60.90;101029.06;5092143;28;20085;-50
2023/08/25 01:33:32;;;;;;;25.02;16.42;;;;;;;23.18;61.93;101038.97;5090755;28;20032;-50
2023/08/25 01:36:25;;;;;;;26.52;16.25;;;;;;;23.08;61.98;101044.50;5092397;28;20028;-51
2023/08/25 01:39:06;;;;;;;26.48;16.05;;;;;;;23.18;61.59;101041.69;5102208;28;20039;-47
2023/08/25 01:41:49;;;;;;;28.10;17.80;;;;;;;23.00;62.20;101040.47;5091109;28;20480;-47
2023/08/25 01:44:19;;;;;;;28.15;17.52;;;;;;;22.28;64.65;101045.47;5088727;28;20089;-51
2023/08/25 01:46:50;;;;;;;25.13;16.38;;;;;;;22.30;65.19;101043.28;5092777;28;20032;-46
2023/08/25 01:49:19;;;;;;;33.20;17.45;;;;;;;22.36;64.73;101044.91;5091755;28;20042;-48
2023/08/25 01:51:46;;;;;;;34.72;17.33;;;;;;;22.04;65.58;101045.28;5091121;28;20043;-47
2023/08/25 01:54:15;;;;;;;25.52;17.23;;;;;;;22.11;65.29;101051.28;5091880;28;20016;-49
2023/08/25 01:56:41;;;;;;;24.40;16.27;;;;;;;21.99;65.92;101052.66;5080072;28;20024;-49
2023/08/25 01:59:07;;;;;;;33.00;17.95;;;;;;;21.75;66.77;101053.22;5090390;28;20382;-48
2023/08/25 02:01:34;;;;;;;29.98;18.17;;;;;;;21.61;67.42;101060.34;5091333;28;20351;-47
2023/08/25 02:04:00;;;;;;;31.10;17.15;;;;;;;21.85;66.56;101058.66;5091610;28;20191;-48
2023/08/25 02:06:26;;;;;;;27.30;17.13;;;;;;;21.89;66.34;101064.41;5092147;28;20027;-49
2023/08/25 02:08:52;;;;;;;31.02;16.55;;;;;;;21.97;65.90;101060.28;5091683;28;20028;-48
2023/08/25 02:11:19;;;;;;;32.45;17.58;;;;;;;21.87;66.26;101066.56;5091708;28;20093;-48
2023/08/25 02:13:45;;;;;;;32.40;17.17;;;;;;;21.85;66.53;101066.84;5087864;28;20067;-48
2023/08/25 02:16:12;;;;;;;29.42;16.90;;;;;;;21.74;66.99;101072.59;5086293;28;20107;-45
2023/08/25 02:18:38;;;;;;;30.40;16.65;;;;;;;21.70;66.97;101074.22;5091811;28;20036;-48
2023/08/25 02:21:04;;;;;;;32.88;18.52;;;;;;;21.39;68.65;101065.28;5091318;28;20020;-48
2023/08/25 02:23:30;;;;;;;33.08;18.45;;;;;;;21.44;68.40;101076.16;5087609;28;20101;-45
2023/08/25 02:25:57;;;;;;;28.95;17.30;;;;;;;21.41;68.46;101079.41;5091710;28;20052;-45
2023/08/25 02:28:23;;;;;;;32.40;17.55;;;;;;;21.15;69.56;101084.81;5084472;28;20040;-45
2023/08/25 02:30:49;;;;;;;30.48;17.17;;;;;;;21.00;69.95;101084.81;5090010;28;20103;-46
2023/08/25 02:33:15;;;;;;;29.90;17.27;;;;;;;20.92;70.14;101090.75;5078184;28;20024;-45
2023/08/25 02:35:42;;;;;;;33.53;18.13;;;;;;;20.87;70.38;101080.69;5106675;28;20047;-46
2023/08/25 02:38:10;;;;;;;28.55;17.60;;;;;;;20.78;71.06;101094.00;5098548;28;20081;-45
2023/08/25 02:40:37;;;;;;;26.88;17.33;;;;;;;20.75;71.02;101082.84;5086761;28;20055;-48
2023/08/25 02:43:05;;;;;;;29.13;17.85;;;;;;;20.82;70.72;101077.94;5111410;28;20083;-45
2023/08/25 02:45:33;;;;;;;30.58;17.13;;;;;;;20.78;70.41;101087.75;5098521;28;20023;-47
2023/08/25 02:47:59;;;;;;;30.20;18.17;;;;;;;20.52;71.81;101084.94;5092115;28;20103;-45
2023/08/25 02:50:25;;;;;;;34.53;18.45;;;;;;;20.51;71.68;101085.22;5090907;28;20032;-46
2023/08/25 02:52:52;;;;;;;33.80;18.45;;;;;;;20.62;71.41;101091.50;5091545;28;20122;-47
2023/08/25 02:55:21;;;;;;;26.95;16.30;;;;;;;20.48;72.05;101089.25;5091648;28;20386;-46
2023/08/25 02:57:48;;;;;;;33.28;18.80;;;;;;;20.66;71.66;101090.72;5105669;28;20066;-46
2023/08/25 03:00:17;;;;;;;30.13;17.95;;;;;;;20.66;71.85;101098.88;5111446;28;20042;-45
2023/08/25 03:02:43;;;;;;;31.60;18.42;;;;;;;20.67;71.46;101097.78;5111608;28;20113;-47
2023/08/25 03:05:11;;;;;;;32.85;18.58;;;;;;;20.60;72.01;101101.81;5112032;28;20019;-46
2023/08/25 03:07:38;;;;;;;32.72;18.85;;;;;;;20.47;72.05;101103.13;5094349;28;20482;-46
2023/08/25 03:10:04;;;;;;;35.70;18.38;;;;;;;20.22;73.09;101109.25;5091345;28;20474;-45
2023/08/25 03:12:30;;;;;;;35.20;19.23;;;;;;;20.23;73.23;101113.59;5101628;28;20473;-46
2023/08/25 03:14:56;;;;;;;34.55;20.38;;;;;;;20.13;74.09;101108.91;5095205;28;20031;-45
2023/08/25 03:17:26;;;;;;;36.50;18.70;;;;;;;20.12;74.03;101110.00;5093807;28;20036;-45
2023/08/25 03:19:53;;;;;;;31.92;18.92;;;;;;;20.09;73.91;101115.13;5080285;28;20048;-46
2023/08/25 03:22:19;;;;;;;32.17;18.80;;;;;;;20.06;73.81;101111.06;5078482;28;20029;-46
2023/08/25 03:24:46;;;;;;;28.85;17.73;;;;;;;20.09;73.45;101118.66;5079454;28;20085;-45
2023/08/25 03:27:13;;;;;;;31.83;18.83;;;;;;;20.02;73.24;101118.09;5079626;28;20043;-44
2023/08/25 03:29:42;;;;;;;29.25;17.17;;;;;;;20.04;73.34;101119.47;5079726;28;20020;-46
2023/08/25 03:32:08;;;;;;;28.02;16.40;;;;;;;19.96;73.83;101128.09;5074284;28;20027;-45
2023/08/25 03:34:34;;;;;;;31.13;18.48;;;;;;;19.86;74.55;101111.72;5074462;28;20028;-45
2023/08/25 03:37:02;;;;;;;35.55;16.58;;;;;;;19.79;75.05;101127.44;5074120;28;20084;-44
2023/08/25 03:39:28;;;;;;;36.83;17.73;;;;;;;19.78;74.70;101117.66;5079640;28;20028;-45
2023/08/25 03:41:55;;;;;;;27.40;16.88;;;;;;;19.62;75.80;101119.44;5094264;28;20398;-43
2023/08/25 03:44:21;;;;;;;36.05;17.92;;;;;;;19.69;75.56;101117.31;5074041;28;20394;-44
2023/08/25 03:46:47;;;;;;;29.65;17.10;;;;;;;19.67;75.48;101133.06;5083632;28;20026;-46
2023/08/25 03:49:13;;;;;;;37.75;17.75;;;;;;;19.71;75.51;101133.34;5087093;28;20028;-44
2023/08/25 03:51:40;;;;;;;29.63;15.82;;;;;;;19.57;75.83;101132.94;5080454;28;20098;-45
2023/08/25 03:54:06;;;;;;;24.95;15.70;;;;;;;19.63;75.10;101136.53;5078149;28;20496;-48
2023/08/25 03:56:32;;;;;;;31.65;15.05;;;;;;;19.67;75.14;101126.81;5080229;28;21658;-47
2023/08/25 03:58:59;;;;;;;24.42;14.45;;;;;;;19.53;75.29;101126.38;5084387;28;20028;-46
2023/08/25 04:01:25;;;;;;;27.83;14.77;;;;;;;19.57;75.04;101134.84;5073695;28;20040;-46
2023/08/25 04:03:51;;;;;;;30.80;14.93;;;;;;;19.39;75.71;101141.47;5080505;28;20028;-48
2023/08/25 04:06:17;;;;;;;25.90;14.40;;;;;;;19.48;75.94;101146.16;5073655;28;20032;-46
2023/08/25 04:08:44;;;;;;;24.25;14.38;;;;;;;19.39;76.31;101149.63;5073643;28;20032;-49
2023/08/25 04:11:10;;;;;;;27.27;13.70;;;;;;;19.29;76.65;101155.75;5073224;28;20029;-46
2023/08/25 04:13:36;;;;;;;23.10;13.00;;;;;;;19.46;76.58;101155.66;5073712;28;20094;-47
2023/08/25 04:16:02;;;;;;;25.42;14.02;;;;;;;19.35;76.70;101152.00;5107763;28;20538;-45
2023/08/25 04:18:30;;;;;;;28.98;14.20;;;;;;;19.31;77.56;101155.50;5114052;28;20036;-46
2023/08/25 04:20:56;;;;;;;22.85;12.80;;;;;;;19.34;76.91;101168.56;5113732;28;20038;-44
2023/08/25 04:23:25;;;;;;;25.95;13.75;;;;;;;19.24;77.60;101172.78;5113921;28;20023;-43
2023/08/25 04:25:52;;;;;;;25.75;14.15;;;;;;;19.17;77.65;101172.19;5114126;28;20020;-44
2023/08/25 04:28:18;;;;;;;30.27;14.45;;;;;;;19.03;78.51;101179.06;5114065;28;20064;-45
2023/08/25 04:30:44;;;;;;;29.70;13.65;;;;;;;18.92;78.88;101174.59;5111849;28;20023;-44
2023/08/25 04:33:12;;;;;;;29.80;14.15;;;;;;;18.86;79.43;101186.47;5093477;28;20442;-44
2023/08/25 04:35:38;;;;;;;20.42;13.38;;;;;;;18.82;79.67;101194.31;5093495;28;20466;-48
2023/08/25 04:38:04;;;;;;;27.63;13.07;;;;;;;18.94;78.80;101189.56;5093425;28;20114;-46
2023/08/25 04:40:31;;;;;;;23.35;12.50;;;;;;;18.84;79.31;101192.16;5093019;28;20135;-48
2023/08/25 04:42:57;;;;;;;25.80;12.77;;;;;;;18.85;79.10;101198.41;5091264;28;20028;-48
2023/08/25 04:45:23;;;;;;;19.77;11.55;;;;;;;18.86;78.48;101197.31;5093224;28;20382;-45
2023/08/25 04:47:49;;;;;;;21.38;11.52;;;;;;;18.86;78.00;101203.56;5093091;28;20122;-48
2023/08/25 04:50:15;;;;;;;25.40;12.77;;;;;;;18.80;78.51;101198.31;5092651;28;20047;-48
2023/08/25 04:52:42;;;;;;;22.58;12.02;;;;;;;18.75;79.23;101200.97;5093691;28;20035;-47
2023/08/25 04:55:10;;;;;;;19.73;11.73;;;;;;;18.76;78.75;101199.91;5093281;28;20156;-48
2023/08/25 04:57:36;;;;;;;24.00;12.40;;;;;;;18.70;79.44;101207.97;5093066;28;20035;-49
2023/08/25 05:00:08;;;;;;;24.58;12.02;;;;;;;18.61;79.44;101208.63;5092573;28;20378;-48
2023/08/25 05:02:34;;;;;;;23.50;11.85;;;;;;;18.56;80.34;101203.97;5092562;28;20024;-49
2023/08/25 05:05:03;;;;;;;25.08;12.27;;;;;;;18.50;80.50;101202.25;5092627;28;20054;-47
2023/08/25 05:07:29;;;;;;;22.80;11.90;;;;;;;18.57;80.17;101213.72;5093287;28;20059;-45
2023/08/25 05:09:56;;;;;;;24.67;11.80;;;;;;;18.59;80.05;101213.47;5092685;28;20390;-47
2023/08/25 05:12:22;;;;;;;22.33;11.90;;;;;;;18.56;80.23;101209.38;5092538;28;20035;-47
2023/08/25 05:14:48;;;;;;;23.42;11.30;;;;;;;18.43;80.87;101199.72;5092992;28;20035;-47
2023/08/25 05:17:14;;;;;;;28.48;12.38;;;;;;;18.44;81.18;101203.25;5092990;28;20415;-46
2023/08/25 05:19:41;;;;;;;23.70;13.00;;;;;;;18.38;80.92;101207.78;5092620;28;20024;-46
2023/08/25 05:22:07;;;;;;;21.80;12.13;;;;;;;18.50;80.27;101202.25;5091253;28;20024;-43
2023/08/25 05:24:33;;;;;;;27.27;12.88;;;;;;;18.31;80.86;101201.69;5092813;28;20028;-45
2023/08/25 05:27:00;;;;;;;21.58;11.88;;;;;;;18.32;80.80;101202.50;5092504;28;20596;-44
2023/08/25 05:29:27;;;;;;;23.65;11.77;;;;;;;18.30;80.45;101204.66;5092542;28;20106;-45
2023/08/25 05:31:54;;;;;;;19.55;10.68;;;;;;;18.38;80.29;101199.66;5092233;28;20074;-43
2023/08/25 05:34:21;;;;;;;23.75;12.23;;;;;;;18.30;80.45;101200.06;5092580;28;20027;-46
2023/08/25 05:36:47;;;;;;;30.70;12.65;;;;;;;18.26;80.86;101206.22;5090693;28;20389;-44
2023/08/25 05:39:13;;;;;;;23.23;12.38;;;;;;;18.23;80.58;101212.16;5092044;28;20016;-47
2023/08/25 05:41:39;;;;;;;20.63;10.85;;;;;;;18.25;81.03;101201.88;5090028;28;20028;-44
2023/08/25 05:44:06;;;;;;;26.40;11.90;;;;;;;18.13;81.47;101201.97;5091464;28;20020;-44
2023/08/25 05:46:32;;;;;;;23.00;12.13;;;;;;;18.22;80.77;101200.50;5092288;28;20449;-44
2023/08/25 05:48:58;;;;;;;19.15;10.98;;;;;;;18.14;81.48;101200.88;5086988;28;20043;-46
2023/08/25 05:51:26;;;;;;;22.05;12.10;;;;;;;18.02;81.55;101192.84;5071407;28;20075;-44
2023/08/25 05:53:53;;;;;;;23.60;12.43;;;;;;;17.87;82.15;101198.00;5084934;28;20024;-43
2023/08/25 05:56:19;;;;;;;22.10;12.02;;;;;;;17.93;81.41;101200.59;5091869;28;20398;-46
2023/08/25 05:58:45;;;;;;;27.77;13.10;;;;;;;17.95;81.43;101203.03;5091156;28;20385;-44
2023/08/25 06:01:12;;;;;;;19.48;11.63;;;;;;;17.86;82.27;101199.91;5091712;28;20032;-43
2023/08/25 06:03:39;;;;;;;25.98;12.38;;;;;;;18.07;81.29;101198.34;5091431;28;20031;-44
2023/08/25 06:06:05;;;;;;;19.77;10.82;;;;;;;18.01;81.17;101209.34;5092321;28;20078;-46
2023/08/25 06:08:32;;;;;;;20.98;11.80;;;;;;;18.04;80.98;101214.25;5089545;28;20466;-45
2023/08/25 06:10:58;;;;;;;19.45;11.43;;;;;;;17.97;81.32;101206.31;5091694;28;20032;-46
2023/08/25 06:13:24;;;;;;;19.10;10.32;;;;;;;18.04;81.12;101211.56;5091059;28;20089;-47
2023/08/25 06:15:51;;;;;;;27.25;12.65;;;;;;;18.11;80.76;101210.34;5092012;28;20030;-47
2023/08/25 06:18:17;;;;;;;21.17;11.00;;;;;;;18.14;81.25;101212.53;5090936;28;20104;-46
2023/08/25 06:20:44;;;;;;;17.17;11.00;;;;;;;18.02;81.73;101213.69;5091600;28;20020;-47
2023/08/25 06:23:13;;;;;;;21.65;11.70;;;;;;;18.03;81.57;101218.88;5089929;28;20043;-46
2023/08/25 06:25:39;;;;;;;25.95;13.02;;;;;;;18.03;82.08;101226.19;5091915;28;20024;-47
2023/08/25 06:28:05;;;;;;;30.35;12.57;;;;;;;17.94;82.42;101217.66;5087396;28;20024;-44
2023/08/25 06:30:35;;;;;;;21.15;12.23;;;;;;;17.92;82.68;101219.78;5091698;28;20024;-45
2023/08/25 06:33:02;;;;;;;26.02;12.30;;;;;;;17.86;82.64;101221.56;5088974;28;20020;-47
2023/08/25 06:35:29;;;;;;;21.77;11.40;;;;;;;17.75;83.67;101227.88;5091725;28;20021;-44
2023/08/25 06:37:55;;;;;;;25.45;11.82;;;;;;;17.74;84.14;101223.53;5089652;28;20098;-46
2023/08/25 06:40:22;;;;;;;27.85;12.65;;;;;;;17.76;83.86;101234.09;5091409;28;20485;-47
2023/08/25 06:42:48;;;;;;;22.77;11.52;;;;;;;17.73;83.82;101237.31;5091587;28;20020;-49
2023/08/25 06:45:15;;;;;;;22.52;11.80;;;;;;;17.82;83.68;101231.28;5091645;28;20032;-48
2023/08/25 06:47:41;;;;;;;23.55;11.65;;;;;;;17.90;83.60;101238.16;5093138;28;20028;-48
2023/08/25 06:50:08;;;;;;;26.80;13.27;;;;;;;17.73;84.72;101234.63;5081433;28;20024;-46
2023/08/25 06:52:36;;;;;;;25.15;12.45;;;;;;;17.85;84.08;101254.31;5075108;28;20469;-45
2023/08/25 06:55:03;;;;;;;23.00;12.13;;;;;;;17.89;83.90;101241.94;5075229;28;20501;-46
2023/08/25 06:57:30;;;;;;;22.20;12.35;;;;;;;17.83;83.73;101245.63;5075145;28;20085;-47
2023/08/25 06:59:56;;;;;;;22.25;11.80;;;;;;;17.86;83.06;101258.66;5074983;28;20478;-48
2023/08/25 07:02:23;;;;;;;24.25;12.38;;;;;;;17.98;83.14;101259.41;5075095;28;20100;-46
2023/08/25 07:04:49;;;;;;;22.52;11.35;;;;;;;18.07;83.04;101257.13;5074792;28;20040;-48
2023/08/25 07:07:27;;;;;;;27.88;12.13;;;;;;;18.08;82.81;101251.47;5074794;28;20445;-47
2023/08/25 07:09:53;;;;;;;24.73;12.35;;;;;;;18.05;83.21;101259.28;5074631;28;20475;-44
2023/08/25 07:12:20;;;;;;;29.90;12.77;;;;;;;17.89;83.97;101255.47;5074883;28;20096;-46
2023/08/25 07:14:46;;;;;;;31.52;13.07;;;;;;;17.82;83.42;101255.63;5075058;28;20032;-47
2023/08/25 07:17:13;;;;;;;27.13;12.80;;;;;;;17.80;83.60;101259.63;5080053;28;20024;-46
2023/08/25 07:19:39;;;;;;;24.70;13.38;;;;;;;17.88;83.60;101254.66;5095340;28;20017;-47
2023/08/25 07:22:05;;;;;;;24.13;12.70;;;;;;;17.94;83.20;101255.56;5094608;28;20394;-44
2023/08/25 07:24:31;;;;;;;24.92;13.13;;;;;;;17.78;83.91;101259.91;5094981;28;20047;-47
2023/08/25 07:26:57;;;;;;;29.77;12.57;;;;;;;17.77;83.93;101268.25;5094631;28;20106;-45
2023/08/25 07:29:23;;;;;;;26.70;12.35;;;;;;;17.80;83.34;101265.06;5094573;28;20020;-44
2023/08/25 07:31:52;;;;;;;25.33;12.20;;;;;;;17.87;83.05;101263.00;5094430;28;20069;-44
2023/08/25 07:34:19;;;;;;;25.40;13.27;;;;;;;17.86;83.40;101262.19;5094700;28;20374;-44
2023/08/25 07:36:45;;;;;;;26.52;12.38;;;;;;;17.78;83.46;101267.19;5094978;28;20028;-46
2023/08/25 07:39:11;;;;;;;23.60;11.75;;;;;;;17.85;83.50;101273.28;5094504;28;20039;-46
2023/08/25 07:41:38;;;;;;;27.38;13.20;;;;;;;17.85;82.65;101273.28;5079331;28;20560;-44
2023/08/25 07:44:04;;;;;;;23.58;12.13;;;;;;;17.95;82.84;101268.03;5096889;28;20032;-45
2023/08/25 07:46:35;;;;;;;24.10;11.73;;;;;;;18.00;82.68;101267.31;5094801;28;20374;-45
2023/08/25 07:49:01;;;;;;;19.13;11.68;;;;;;;18.08;81.69;101270.41;5074288;28;20036;-44
2023/08/25 07:51:28;;;;;;;30.25;13.65;;;;;;;17.96;82.56;101266.16;5073532;28;20059;-44
2023/08/25 07:53:54;;;;;;;24.00;12.48;;;;;;;18.09;81.53;101263.94;5073917;28;20024;-45
2023/08/25 07:56:20;;;;;;;24.42;13.00;;;;;;;18.03;81.72;101258.69;5075701;28;20032;-44
2023/08/25 07:58:46;;;;;;;23.42;13.10;;;;;;;18.03;81.39;101262.19;5074567;28;20123;-45
2023/08/25 08:01:12;;;;;;;25.02;12.82;;;;;;;18.07;81.43;101252.53;5073350;28;20482;-44
2023/08/25 08:03:39;;;;;;;27.75;12.27;;;;;;;18.10;81.27;101260.19;5073704;28;20028;-47
2023/08/25 08:06:05;;;;;;;21.58;12.15;;;;;;;17.99;82.01;101258.38;5073454;28;20028;-44
2023/08/25 08:08:31;;;;;;;21.80;12.23;;;;;;;18.01;82.10;101260.81;5091205;28;20113;-45
2023/08/25 08:10:57;;;;;;;26.27;12.40;;;;;;;18.02;81.64;101262.47;5093835;28;20020;-47
2023/08/25 08:13:24;;;;;;;27.48;12.75;;;;;;;18.14;81.48;101252.38;5078559;28;20059;-46
2023/08/25 08:15:50;;;;;;;23.10;13.60;;;;;;;18.06;81.75;101253.59;5073019;28;20029;-45
2023/08/25 08:18:16;;;;;;;26.92;12.82;;;;;;;18.08;81.54;101256.88;5073319;28;20035;-45
2023/08/25 08:20:44;;;;;;;20.92;12.27;;;;;;;18.10;81.04;101254.75;5073314;28;20017;-46
2023/08/25 08:23:11;;;;;;;24.42;13.10;;;;;;;18.06;81.08;101250.91;5073528;28;20059;-46
2023/08/25 08:25:37;;;;;;;26.08;12.75;;;;;;;18.07;81.05;101255.25;5073646;28;20024;-44
2023/08/25 08:28:04;;;;;;;21.50;12.40;;;;;;;18.01;81.20;101256.22;5086087;28;20036;-45
2023/08/25 08:30:30;;;;;;;23.73;11.98;;;;;;;18.12;80.42;101249.91;5093089;28;20020;-44
2023/08/25 08:32:56;;;;;;;25.08;12.80;;;;;;;18.08;80.45;101256.06;5091598;28;20123;-43
2023/08/25 08:35:22;;;;;;;23.63;12.10;;;;;;;18.14;80.38;101255.88;5093853;28;20028;-44
2023/08/25 08:37:48;;;;;;;25.42;12.82;;;;;;;18.06;80.06;101264.44;5093455;28;20170;-47
2023/08/25 08:40:15;;;;;;;22.13;12.70;;;;;;;17.99;80.12;101266.50;5093013;28;20103;-44
2023/08/25 08:42:45;;;;;;;19.75;11.95;;;;;;;18.07;79.48;101263.38;5093416;28;20432;-46
2023/08/25 08:45:11;;;;;;;21.48;12.45;;;;;;;18.18;78.87;101264.34;5091839;28;20035;-44
2023/08/25 08:47:39;;;;;;;23.75;11.85;;;;;;;18.27;78.72;101262.06;5093480;28;20173;-46
2023/08/25 08:50:06;;;;;;;23.08;11.60;;;;;;;18.16;78.86;101266.50;5092468;28;20016;-45
2023/08/25 08:52:33;;;;;;;23.67;12.88;;;;;;;18.08;79.74;101270.41;5093180;28;20024;-44
2023/08/25 08:55:00;;;;;;;24.15;12.40;;;;;;;18.13;79.06;101273.22;5093151;28;20039;-45
2023/08/25 08:57:27;;;;;;;21.25;12.00;;;;;;;18.15;78.88;101267.53;5085694;28;20027;-47
2023/08/25 08:59:53;;;;;;;21.55;11.88;;;;;;;18.13;78.52;101269.69;5083326;28;20051;-45
2023/08/25 09:02:23;;;;;;;21.00;12.55;;;;;;;18.19;78.25;101260.56;5087619;28;20028;-44
2023/08/25 09:04:55;;;;;;;23.30;12.93;;;;;;;18.05;79.17;101256.56;5054373;28;20020;-46
2023/08/25 09:07:23;;;;;;;25.80;12.30;;;;;;;18.03;79.48;101256.78;5072987;28;20378;-45
2023/08/25 09:09:50;;;;;;;21.33;12.68;;;;;;;18.05;79.31;101265.50;5071609;28;20028;-45
2023/08/25 09:12:18;;;;;;;24.45;13.15;;;;;;;18.05;79.08;101257.38;5072523;28;20048;-44
2023/08/25 09:14:45;;;;;;;26.48;13.20;;;;;;;18.00;79.69;101254.59;5074142;28;20114;-46
2023/08/25 09:17:14;;;;;;;25.70;13.00;;;;;;;18.03;79.83;101251.38;5071941;28;20031;-44
2023/08/25 09:19:41;;;;;;;22.55;13.30;;;;;;;18.01;80.05;101258.94;5072401;28;20063;-45
2023/08/25 09:22:13;;;;;;;26.55;13.25;;;;;;;18.06;79.79;101255.50;5072242;28;20498;-45
2023/08/25 09:24:43;;;;;;;27.67;13.80;;;;;;;18.09;80.10;101258.50;5072263;28;20025;-46
2023/08/25 09:27:26;;;;;;;29.95;13.52;;;;;;;18.06;80.38;101261.72;5072343;28;20016;-44
2023/08/25 09:30:03;;;;;;;23.27;11.75;;;;;;;18.10;80.09;101254.75;5072036;28;20020;-45
2023/08/25 09:32:30;;;;;;;26.23;13.27;;;;;;;18.06;80.19;101253.59;5072351;28;20085;-44
2023/08/25 09:35:13;;;;;;;21.40;13.55;;;;;;;18.15;79.70;101248.59;5072034;28;20474;-45
2023/08/25 09:37:43;;;;;;;22.40;12.98;;;;;;;18.12;79.67;101240.97;5072430;28;20039;-46
2023/08/25 09:40:14;;;;;;;20.05;12.55;;;;;;;18.16;79.64;101244.81;5071825;28;20032;-47
2023/08/25 09:42:41;;;;;;;25.30;13.10;;;;;;;18.12;79.64;101247.19;5073478;28;20490;-45
2023/08/25 09:45:09;;;;;;;21.38;13.25;;;;;;;18.27;79.09;101241.22;5071516;28;20024;-47
2023/08/25 09:47:37;;;;;;;26.80;13.63;;;;;;;18.26;79.46;101242.25;5074294;28;20027;-45
2023/08/25 09:50:04;;;;;;;31.63;13.88;;;;;;;18.24;79.06;101243.59;5071863;28;20032;-45
2023/08/25 09:52:35;;;;;;;26.17;13.43;;;;;;;18.09;79.47;101242.25;5071775;28;20021;-44
2023/08/25 09:55:01;;;;;;;28.98;14.02;;;;;;;18.16;78.78;101245.66;5071451;28;20021;-49
2023/08/25 09:57:28;;;;;;;26.08;13.82;;;;;;;18.05;79.12;101248.44;5081686;28;20036;-45
2023/08/25 09:59:55;;;;;;;22.27;13.18;;;;;;;18.01;79.76;101256.22;5091767;28;20032;-46
2023/08/25 10:02:22;;;;;;;26.52;13.95;;;;;;;17.86;80.21;101261.38;5092038;28;20084;-48
2023/08/25 10:04:48;;;;;;;26.85;13.88;;;;;;;18.01;79.66;101260.81;5091910;28;20102;-44
2023/08/25 10:07:15;;;;;;;23.73;13.70;;;;;;;17.99;79.86;101257.53;5084120;28;20040;-47
2023/08/25 10:09:41;;;;;;;28.25;14.02;;;;;;;17.93;79.99;101259.31;5071449;28;20661;-47
2023/08/25 10:12:10;;;;;;;27.13;13.80;;;;;;;17.98;80.04;101254.00;5071725;28;20048;-47
2023/08/25 10:14:39;;;;;;;28.40;13.80;;;;;;;18.01;79.95;101256.22;5074006;28;20047;-46
2023/08/25 10:17:10;;;;;;;24.10;13.73;;;;;;;18.04;79.51;101247.59;5083611;28;20069;-45
2023/08/25 10:19:38;;;;;;;27.10;14.10;;;;;;;18.09;79.30;101253.09;5091544;28;20020;-45
2023/08/25 10:22:06;;;;;;;26.70;13.90;;;;;;;17.93;80.21;101249.34;5078925;28;20039;-44
2023/08/25 10:24:35;;;;;;;25.63;14.02;;;;;;;18.05;79.77;101251.97;5075762;28;20032;-45
2023/08/25 10:27:02;;;;;;;29.65;14.25;;;;;;;18.12;78.98;101258.03;5075827;28;20035;-48
2023/08/25 10:29:29;;;;;;;22.02;12.90;;;;;;;18.07;79.27;101251.72;5077242;28;20113;-45
2023/08/25 10:32:00;;;;;;;22.33;13.15;;;;;;;18.09;79.50;101249.56;5083757;28;20019;-45
2023/08/25 10:34:37;;;;;;;26.80;14.25;;;;;;;17.96;79.47;101248.00;5075659;28;20033;-46
2023/08/25 10:37:04;;;;;;;26.52;13.55;;;;;;;17.93;79.89;101253.91;5096796;28;20024;-44
2023/08/25 10:39:46;;;;;;;20.85;12.65;;;;;;;18.10;79.26;101257.47;5095506;28;20626;-45
2023/08/25 10:42:13;;;;;;;23.25;13.52;;;;;;;18.10;79.15;101257.47;5095749;28;20055;-46
2023/08/25 10:44:41;;;;;;;23.33;13.32;;;;;;;18.08;79.18;101262.28;5095910;28;20024;-44
2023/08/25 10:47:08;;;;;;;20.63;12.88;;;;;;;17.96;80.24;101264.25;5075429;28;20021;-44
2023/08/25 10:49:41;;;;;;;26.15;13.02;;;;;;;18.04;79.66;101268.44;5098752;28;20024;-45
2023/08/25 10:52:19;;;;;;;22.38;13.35;;;;;;;18.05;79.55;101257.38;5095475;28;20075;-44
2023/08/25 10:54:47;;;;;;;22.80;14.45;;;;;;;17.99;79.60;101260.22;5095628;28;20024;-44
2023/08/25 10:57:36;;;;;;;23.95;14.18;;;;;;;17.95;79.64;101251.78;5095531;28;20020;-46
2023/08/25 11:00:27;;;;;;;30.88;14.38;;;;;;;17.96;79.87;101242.59;5046011;28;20044;-46
2023/08/25 11:02:54;;;;;;;21.92;13.48;;;;;;;17.81;80.32;101251.25;5095473;28;20050;-45
2023/08/25 11:05:31;;;;;;;25.92;13.98;;;;;;;17.82;80.78;101246.66;5095558;28;20088;-46
2023/08/25 11:08:01;;;;;;;21.30;12.30;;;;;;;17.86;80.37;101242.41;5095905;28;20109;-44
2023/08/25 11:10:30;;;;;;;24.75;13.70;;;;;;;17.88;80.12;101245.72;5097823;28;20529;-46
2023/08/25 11:12:59;;;;;;;25.67;14.60;;;;;;;17.81;80.63;101243.13;5095466;28;20118;-46